sensor_id;sensor_type;location;lat;lon;timestamp;P1;durP1;ratioP1;P2;durP2;ratioP2
52586;SDS011;38480;52.724;6.436;2023-05-07T00:01:38;42.10;;;30.00;;
52586;SDS011;38480;52.724;6.436;2023-05-07T00:04:04;38.70;;;29.17;;
52586;SDS011;38480;52.724;6.436;2023-05-07T00:06:30;46.60;;;31.50;;
52586;SDS011;38480;52.724;6.436;2023-05-07T00:08:56;42.40;;;31.33;;
52586;SDS011;38480;52.724;6.436;2023-05-07T00:11:23;40.93;;;29.33;;
52586;SDS011;38480;52.724;6.436;2023-05-07T00:13:49;41.57;;;32.00;;
52586;SDS011;38480;52.724;6.436;2023-05-07T00:16:15;44.60;;;31.33;;
52586;SDS011;38480;52.724;6.436;2023-05-07T00:18:41;45.03;;;30.93;;
52586;SDS011;38480;52.724;6.436;2023-05-07T00:21:07;50.23;;;32.70;;
52586;SDS011;38480;52.724;6.436;2023-05-07T00:23:33;54.63;;;32.93;;
52586;SDS011;38480;52.724;6.436;2023-05-07T00:25:59;54.53;;;32.37;;
52586;SDS011;38480;52.724;6.436;2023-05-07T00:28:25;53.73;;;33.67;;
52586;SDS011;38480;52.724;6.436;2023-05-07T00:30:52;51.77;;;33.33;;
52586;SDS011;38480;52.724;6.436;2023-05-07T00:33:18;50.93;;;31.97;;
52586;SDS011;38480;52.724;6.436;2023-05-07T00:35:45;50.63;;;31.33;;
52586;SDS011;38480;52.724;6.436;2023-05-07T00:38:11;34.87;;;24.10;;
52586;SDS011;38480;52.724;6.436;2023-05-07T00:40:37;34.57;;;24.77;;
52586;SDS011;38480;52.724;6.436;2023-05-07T00:43:03;39.53;;;25.33;;
52586;SDS011;38480;52.724;6.436;2023-05-07T00:45:29;39.73;;;24.60;;
52586;SDS011;38480;52.724;6.436;2023-05-07T00:47:57;35.00;;;23.63;;
52586;SDS011;38480;52.724;6.436;2023-05-07T00:50:23;31.67;;;22.33;;
52586;SDS011;38480;52.724;6.436;2023-05-07T00:52:49;36.00;;;24.70;;
52586;SDS011;38480;52.724;6.436;2023-05-07T00:55:15;34.20;;;22.67;;
52586;SDS011;38480;52.724;6.436;2023-05-07T00:57:41;33.77;;;21.87;;
52586;SDS011;38480;52.724;6.436;2023-05-07T01:00:08;32.33;;;21.30;;
52586;SDS011;38480;52.724;6.436;2023-05-07T01:02:38;28.87;;;20.63;;
52586;SDS011;38480;52.724;6.436;2023-05-07T01:05:05;35.37;;;21.97;;
52586;SDS011;38480;52.724;6.436;2023-05-07T01:07:31;33.07;;;21.23;;
52586;SDS011;38480;52.724;6.436;2023-05-07T01:09:58;35.57;;;22.90;;
52586;SDS011;38480;52.724;6.436;2023-05-07T01:12:24;38.43;;;22.33;;
52586;SDS011;38480;52.724;6.436;2023-05-07T01:14:51;31.07;;;21.00;;
52586;SDS011;38480;52.724;6.436;2023-05-07T01:17:18;33.27;;;22.40;;
52586;SDS011;38480;52.724;6.436;2023-05-07T01:19:44;36.20;;;22.50;;
52586;SDS011;38480;52.724;6.436;2023-05-07T01:22:10;37.53;;;24.07;;
52586;SDS011;38480;52.724;6.436;2023-05-07T01:24:37;37.37;;;24.70;;
52586;SDS011;38480;52.724;6.436;2023-05-07T01:27:03;41.87;;;23.47;;
52586;SDS011;38480;52.724;6.436;2023-05-07T01:29:30;34.70;;;22.40;;
52586;SDS011;38480;52.724;6.436;2023-05-07T01:31:57;36.27;;;22.83;;
52586;SDS011;38480;52.724;6.436;2023-05-07T01:34:24;42.63;;;23.87;;
52586;SDS011;38480;52.724;6.436;2023-05-07T01:36:52;38.20;;;22.60;;
52586;SDS011;38480;52.724;6.436;2023-05-07T01:39:19;39.90;;;22.97;;
52586;SDS011;38480;52.724;6.436;2023-05-07T01:41:45;32.60;;;23.03;;
52586;SDS011;38480;52.724;6.436;2023-05-07T01:44:12;38.07;;;24.63;;
52586;SDS011;38480;52.724;6.436;2023-05-07T01:46:38;32.77;;;22.63;;
52586;SDS011;38480;52.724;6.436;2023-05-07T01:49:04;38.23;;;23.00;;
52586;SDS011;38480;52.724;6.436;2023-05-07T01:51:30;29.90;;;23.23;;
52586;SDS011;38480;52.724;6.436;2023-05-07T01:53:57;41.87;;;27.13;;
52586;SDS011;38480;52.724;6.436;2023-05-07T01:56:23;35.80;;;25.97;;
52586;SDS011;38480;52.724;6.436;2023-05-07T01:58:50;38.90;;;26.77;;
52586;SDS011;38480;52.724;6.436;2023-05-07T02:01:17;37.67;;;26.33;;
52586;SDS011;38480;52.724;6.436;2023-05-07T02:03:43;37.93;;;27.07;;
52586;SDS011;38480;52.724;6.436;2023-05-07T02:06:09;37.83;;;26.77;;
52586;SDS011;38480;52.724;6.436;2023-05-07T02:08:35;32.77;;;25.17;;
52586;SDS011;38480;52.724;6.436;2023-05-07T02:11:01;41.60;;;28.83;;
52586;SDS011;38480;52.724;6.436;2023-05-07T02:13:28;42.40;;;26.97;;
52586;SDS011;38480;52.724;6.436;2023-05-07T02:15:55;39.57;;;28.07;;
52586;SDS011;38480;52.724;6.436;2023-05-07T02:18:21;36.50;;;26.47;;
52586;SDS011;38480;52.724;6.436;2023-05-07T02:20:47;36.60;;;26.77;;
52586;SDS011;38480;52.724;6.436;2023-05-07T02:23:13;36.43;;;28.00;;
52586;SDS011;38480;52.724;6.436;2023-05-07T02:25:39;40.17;;;27.00;;
52586;SDS011;38480;52.724;6.436;2023-05-07T02:28:05;39.27;;;27.80;;
52586;SDS011;38480;52.724;6.436;2023-05-07T02:30:31;42.20;;;29.10;;
52586;SDS011;38480;52.724;6.436;2023-05-07T02:32:58;38.40;;;27.50;;
52586;SDS011;38480;52.724;6.436;2023-05-07T02:35:24;38.57;;;27.03;;
52586;SDS011;38480;52.724;6.436;2023-05-07T02:37:51;39.50;;;27.17;;
52586;SDS011;38480;52.724;6.436;2023-05-07T02:40:17;43.03;;;28.97;;
52586;SDS011;38480;52.724;6.436;2023-05-07T02:42:43;45.27;;;28.90;;
52586;SDS011;38480;52.724;6.436;2023-05-07T02:45:09;39.77;;;29.17;;
52586;SDS011;38480;52.724;6.436;2023-05-07T02:47:35;41.00;;;28.63;;
52586;SDS011;38480;52.724;6.436;2023-05-07T02:50:02;49.23;;;30.63;;
52586;SDS011;38480;52.724;6.436;2023-05-07T02:52:28;46.67;;;29.83;;
52586;SDS011;38480;52.724;6.436;2023-05-07T02:54:54;43.73;;;29.83;;
52586;SDS011;38480;52.724;6.436;2023-05-07T02:57:20;42.57;;;29.30;;
52586;SDS011;38480;52.724;6.436;2023-05-07T02:59:46;43.43;;;29.93;;
52586;SDS011;38480;52.724;6.436;2023-05-07T03:02:12;46.23;;;31.17;;
52586;SDS011;38480;52.724;6.436;2023-05-07T03:04:39;45.37;;;29.97;;
52586;SDS011;38480;52.724;6.436;2023-05-07T03:07:05;50.93;;;33.17;;
52586;SDS011;38480;52.724;6.436;2023-05-07T03:09:31;42.73;;;30.63;;
52586;SDS011;38480;52.724;6.436;2023-05-07T03:11:57;45.03;;;30.73;;
52586;SDS011;38480;52.724;6.436;2023-05-07T03:14:23;44.80;;;30.27;;
52586;SDS011;38480;52.724;6.436;2023-05-07T03:16:49;50.53;;;32.80;;
52586;SDS011;38480;52.724;6.436;2023-05-07T03:19:15;47.67;;;32.03;;
52586;SDS011;38480;52.724;6.436;2023-05-07T03:21:41;52.47;;;33.73;;
52586;SDS011;38480;52.724;6.436;2023-05-07T03:24:08;53.83;;;33.50;;
52586;SDS011;38480;52.724;6.436;2023-05-07T03:26:34;50.77;;;32.60;;
52586;SDS011;38480;52.724;6.436;2023-05-07T03:29:00;44.63;;;31.00;;
52586;SDS011;38480;52.724;6.436;2023-05-07T03:31:26;54.33;;;33.90;;
52586;SDS011;38480;52.724;6.436;2023-05-07T03:33:53;48.93;;;32.03;;
52586;SDS011;38480;52.724;6.436;2023-05-07T03:36:19;49.10;;;33.40;;
52586;SDS011;38480;52.724;6.436;2023-05-07T03:38:46;52.50;;;33.10;;
52586;SDS011;38480;52.724;6.436;2023-05-07T03:41:12;47.97;;;33.70;;
52586;SDS011;38480;52.724;6.436;2023-05-07T03:43:38;58.80;;;36.13;;
52586;SDS011;38480;52.724;6.436;2023-05-07T03:46:04;48.20;;;33.33;;
52586;SDS011;38480;52.724;6.436;2023-05-07T03:48:30;50.90;;;32.87;;
52586;SDS011;38480;52.724;6.436;2023-05-07T03:50:57;47.37;;;33.80;;
52586;SDS011;38480;52.724;6.436;2023-05-07T03:53:23;54.47;;;35.33;;
52586;SDS011;38480;52.724;6.436;2023-05-07T03:55:49;49.27;;;33.53;;
52586;SDS011;38480;52.724;6.436;2023-05-07T03:58:16;48.07;;;33.43;;
52586;SDS011;38480;52.724;6.436;2023-05-07T04:00:42;52.37;;;32.97;;
52586;SDS011;38480;52.724;6.436;2023-05-07T04:03:08;49.10;;;32.20;;
52586;SDS011;38480;52.724;6.436;2023-05-07T04:05:34;50.87;;;32.43;;
52586;SDS011;38480;52.724;6.436;2023-05-07T04:08:00;47.77;;;32.63;;
52586;SDS011;38480;52.724;6.436;2023-05-07T04:10:29;49.93;;;35.17;;
52586;SDS011;38480;52.724;6.436;2023-05-07T04:12:55;54.77;;;35.43;;
52586;SDS011;38480;52.724;6.436;2023-05-07T04:15:23;50.90;;;36.03;;
52586;SDS011;38480;52.724;6.436;2023-05-07T04:17:49;57.93;;;37.70;;
52586;SDS011;38480;52.724;6.436;2023-05-07T04:20:15;54.23;;;36.03;;
52586;SDS011;38480;52.724;6.436;2023-05-07T04:22:42;56.70;;;37.27;;
52586;SDS011;38480;52.724;6.436;2023-05-07T04:25:08;56.47;;;36.77;;
52586;SDS011;38480;52.724;6.436;2023-05-07T04:27:35;52.77;;;36.80;;
52586;SDS011;38480;52.724;6.436;2023-05-07T04:30:01;59.90;;;39.10;;
52586;SDS011;38480;52.724;6.436;2023-05-07T04:32:28;56.67;;;36.73;;
52586;SDS011;38480;52.724;6.436;2023-05-07T04:34:55;48.60;;;34.53;;
52586;SDS011;38480;52.724;6.436;2023-05-07T04:37:21;49.77;;;35.57;;
52586;SDS011;38480;52.724;6.436;2023-05-07T04:39:48;49.97;;;35.63;;
52586;SDS011;38480;52.724;6.436;2023-05-07T04:42:15;52.90;;;35.13;;
52586;SDS011;38480;52.724;6.436;2023-05-07T04:44:41;50.90;;;35.60;;
52586;SDS011;38480;52.724;6.436;2023-05-07T04:47:07;48.57;;;35.17;;
52586;SDS011;38480;52.724;6.436;2023-05-07T04:49:33;47.43;;;33.70;;
52586;SDS011;38480;52.724;6.436;2023-05-07T04:51:59;49.20;;;34.77;;
52586;SDS011;38480;52.724;6.436;2023-05-07T04:54:26;52.10;;;35.17;;
52586;SDS011;38480;52.724;6.436;2023-05-07T04:56:52;47.33;;;33.30;;
52586;SDS011;38480;52.724;6.436;2023-05-07T04:59:18;48.70;;;32.50;;
52586;SDS011;38480;52.724;6.436;2023-05-07T05:01:44;41.03;;;31.20;;
52586;SDS011;38480;52.724;6.436;2023-05-07T05:04:10;42.93;;;32.17;;
52586;SDS011;38480;52.724;6.436;2023-05-07T05:06:36;45.97;;;32.93;;
52586;SDS011;38480;52.724;6.436;2023-05-07T05:09:02;44.17;;;32.20;;
52586;SDS011;38480;52.724;6.436;2023-05-07T05:11:30;42.90;;;31.13;;
52586;SDS011;38480;52.724;6.436;2023-05-07T05:13:56;47.27;;;32.20;;
52586;SDS011;38480;52.724;6.436;2023-05-07T05:16:22;42.47;;;30.70;;
52586;SDS011;38480;52.724;6.436;2023-05-07T05:18:48;48.90;;;33.03;;
52586;SDS011;38480;52.724;6.436;2023-05-07T05:21:15;47.97;;;32.87;;
52586;SDS011;38480;52.724;6.436;2023-05-07T05:23:41;41.13;;;31.53;;
52586;SDS011;38480;52.724;6.436;2023-05-07T05:26:07;42.17;;;30.57;;
52586;SDS011;38480;52.724;6.436;2023-05-07T05:28:33;42.17;;;31.30;;
52586;SDS011;38480;52.724;6.436;2023-05-07T05:30:59;40.43;;;29.23;;
52586;SDS011;38480;52.724;6.436;2023-05-07T05:33:25;38.57;;;29.47;;
52586;SDS011;38480;52.724;6.436;2023-05-07T05:35:51;41.20;;;30.10;;
52586;SDS011;38480;52.724;6.436;2023-05-07T05:38:17;39.57;;;29.80;;
52586;SDS011;38480;52.724;6.436;2023-05-07T05:40:43;38.13;;;28.37;;
52586;SDS011;38480;52.724;6.436;2023-05-07T05:43:09;40.13;;;27.53;;
52586;SDS011;38480;52.724;6.436;2023-05-07T05:45:35;36.40;;;27.67;;
52586;SDS011;38480;52.724;6.436;2023-05-07T05:48:02;31.20;;;26.47;;
52586;SDS011;38480;52.724;6.436;2023-05-07T05:50:28;35.87;;;26.83;;
52586;SDS011;38480;52.724;6.436;2023-05-07T05:52:54;38.07;;;27.00;;
52586;SDS011;38480;52.724;6.436;2023-05-07T05:55:20;33.77;;;26.33;;
52586;SDS011;38480;52.724;6.436;2023-05-07T05:57:46;33.70;;;25.07;;
52586;SDS011;38480;52.724;6.436;2023-05-07T06:00:13;38.07;;;27.50;;
52586;SDS011;38480;52.724;6.436;2023-05-07T06:02:39;32.10;;;26.17;;
52586;SDS011;38480;52.724;6.436;2023-05-07T06:05:05;35.23;;;25.53;;
52586;SDS011;38480;52.724;6.436;2023-05-07T06:07:31;34.43;;;25.83;;
52586;SDS011;38480;52.724;6.436;2023-05-07T06:09:57;35.10;;;25.57;;
52586;SDS011;38480;52.724;6.436;2023-05-07T06:12:23;35.43;;;25.73;;
52586;SDS011;38480;52.724;6.436;2023-05-07T06:14:49;32.83;;;25.07;;
52586;SDS011;38480;52.724;6.436;2023-05-07T06:17:16;33.50;;;26.07;;
52586;SDS011;38480;52.724;6.436;2023-05-07T06:19:42;30.13;;;25.03;;
52586;SDS011;38480;52.724;6.436;2023-05-07T06:22:08;31.83;;;25.70;;
52586;SDS011;38480;52.724;6.436;2023-05-07T06:24:34;33.00;;;26.43;;
52586;SDS011;38480;52.724;6.436;2023-05-07T06:27:00;35.33;;;25.13;;
52586;SDS011;38480;52.724;6.436;2023-05-07T06:29:26;33.70;;;25.30;;
52586;SDS011;38480;52.724;6.436;2023-05-07T06:31:53;30.53;;;25.10;;
52586;SDS011;38480;52.724;6.436;2023-05-07T06:34:19;31.10;;;24.50;;
52586;SDS011;38480;52.724;6.436;2023-05-07T06:36:45;33.43;;;23.83;;
52586;SDS011;38480;52.724;6.436;2023-05-07T06:39:11;34.07;;;25.63;;
52586;SDS011;38480;52.724;6.436;2023-05-07T06:41:37;29.87;;;24.73;;
52586;SDS011;38480;52.724;6.436;2023-05-07T06:44:04;33.37;;;26.13;;
52586;SDS011;38480;52.724;6.436;2023-05-07T06:46:30;34.80;;;25.90;;
52586;SDS011;38480;52.724;6.436;2023-05-07T06:48:56;33.93;;;25.50;;
52586;SDS011;38480;52.724;6.436;2023-05-07T06:51:22;27.90;;;22.80;;
52586;SDS011;38480;52.724;6.436;2023-05-07T06:53:48;30.73;;;24.77;;
52586;SDS011;38480;52.724;6.436;2023-05-07T06:56:14;30.30;;;25.13;;
52586;SDS011;38480;52.724;6.436;2023-05-07T06:58:40;31.27;;;23.90;;
52586;SDS011;38480;52.724;6.436;2023-05-07T07:01:06;29.00;;;23.00;;
52586;SDS011;38480;52.724;6.436;2023-05-07T07:03:32;29.93;;;23.93;;
52586;SDS011;38480;52.724;6.436;2023-05-07T07:05:58;30.30;;;23.97;;
52586;SDS011;38480;52.724;6.436;2023-05-07T07:08:26;27.80;;;23.70;;
52586;SDS011;38480;52.724;6.436;2023-05-07T07:10:52;27.10;;;22.63;;
52586;SDS011;38480;52.724;6.436;2023-05-07T07:13:18;30.07;;;25.23;;
52586;SDS011;38480;52.724;6.436;2023-05-07T07:15:44;30.33;;;25.13;;
52586;SDS011;38480;52.724;6.436;2023-05-07T07:18:10;31.50;;;25.03;;
52586;SDS011;38480;52.724;6.436;2023-05-07T07:20:36;30.23;;;24.37;;
52586;SDS011;38480;52.724;6.436;2023-05-07T07:23:02;30.43;;;22.93;;
52586;SDS011;38480;52.724;6.436;2023-05-07T07:25:28;28.43;;;24.17;;
52586;SDS011;38480;52.724;6.436;2023-05-07T07:27:54;31.00;;;23.63;;
52586;SDS011;38480;52.724;6.436;2023-05-07T07:30:20;28.33;;;23.53;;
52586;SDS011;38480;52.724;6.436;2023-05-07T07:32:46;30.47;;;23.30;;
52586;SDS011;38480;52.724;6.436;2023-05-07T07:35:12;30.97;;;24.63;;
52586;SDS011;38480;52.724;6.436;2023-05-07T07:37:38;31.73;;;23.07;;
52586;SDS011;38480;52.724;6.436;2023-05-07T07:40:04;32.53;;;23.60;;
52586;SDS011;38480;52.724;6.436;2023-05-07T07:42:31;28.60;;;21.67;;
52586;SDS011;38480;52.724;6.436;2023-05-07T07:44:57;27.57;;;22.63;;
52586;SDS011;38480;52.724;6.436;2023-05-07T07:47:23;26.37;;;22.20;;
52586;SDS011;38480;52.724;6.436;2023-05-07T07:49:49;26.87;;;21.90;;
52586;SDS011;38480;52.724;6.436;2023-05-07T07:52:15;28.20;;;22.60;;
52586;SDS011;38480;52.724;6.436;2023-05-07T07:54:41;29.67;;;22.80;;
52586;SDS011;38480;52.724;6.436;2023-05-07T07:57:07;26.93;;;21.47;;
52586;SDS011;38480;52.724;6.436;2023-05-07T07:59:33;29.67;;;22.97;;
52586;SDS011;38480;52.724;6.436;2023-05-07T08:02:00;27.77;;;21.77;;
52586;SDS011;38480;52.724;6.436;2023-05-07T08:04:26;26.87;;;23.33;;
52586;SDS011;38480;52.724;6.436;2023-05-07T08:06:52;26.07;;;22.53;;
52586;SDS011;38480;52.724;6.436;2023-05-07T08:09:19;27.77;;;21.53;;
52586;SDS011;38480;52.724;6.436;2023-05-07T08:11:45;23.93;;;21.27;;
52586;SDS011;38480;52.724;6.436;2023-05-07T08:14:11;27.90;;;22.10;;
52586;SDS011;38480;52.724;6.436;2023-05-07T08:16:37;25.40;;;21.33;;
52586;SDS011;38480;52.724;6.436;2023-05-07T08:19:03;25.73;;;21.80;;
52586;SDS011;38480;52.724;6.436;2023-05-07T08:21:29;25.57;;;21.20;;
52586;SDS011;38480;52.724;6.436;2023-05-07T08:23:55;26.27;;;21.90;;
52586;SDS011;38480;52.724;6.436;2023-05-07T08:26:21;27.63;;;22.07;;
52586;SDS011;38480;52.724;6.436;2023-05-07T08:28:47;27.20;;;22.80;;
52586;SDS011;38480;52.724;6.436;2023-05-07T08:31:14;26.87;;;21.83;;
52586;SDS011;38480;52.724;6.436;2023-05-07T08:33:40;30.10;;;22.57;;
52586;SDS011;38480;52.724;6.436;2023-05-07T08:36:06;25.87;;;21.53;;
52586;SDS011;38480;52.724;6.436;2023-05-07T08:38:32;28.20;;;22.57;;
52586;SDS011;38480;52.724;6.436;2023-05-07T08:40:58;25.97;;;19.67;;
52586;SDS011;38480;52.724;6.436;2023-05-07T08:43:26;25.60;;;20.70;;
52586;SDS011;38480;52.724;6.436;2023-05-07T08:45:53;24.03;;;20.80;;
52586;SDS011;38480;52.724;6.436;2023-05-07T08:48:23;26.17;;;21.10;;
52586;SDS011;38480;52.724;6.436;2023-05-07T08:50:51;23.60;;;18.47;;
52586;SDS011;38480;52.724;6.436;2023-05-07T08:53:17;23.37;;;20.63;;
52586;SDS011;38480;52.724;6.436;2023-05-07T08:55:44;23.33;;;20.10;;
52586;SDS011;38480;52.724;6.436;2023-05-07T08:58:10;25.30;;;20.53;;
52586;SDS011;38480;52.724;6.436;2023-05-07T09:00:36;24.33;;;20.93;;
52586;SDS011;38480;52.724;6.436;2023-05-07T09:03:03;21.90;;;18.90;;
52586;SDS011;38480;52.724;6.436;2023-05-07T09:05:29;27.13;;;22.10;;
52586;SDS011;38480;52.724;6.436;2023-05-07T09:07:58;25.17;;;19.13;;
52586;SDS011;38480;52.724;6.436;2023-05-07T09:10:25;22.70;;;18.90;;
52586;SDS011;38480;52.724;6.436;2023-05-07T09:12:51;23.47;;;19.73;;
52586;SDS011;38480;52.724;6.436;2023-05-07T09:15:17;24.67;;;21.43;;
52586;SDS011;38480;52.724;6.436;2023-05-07T09:17:44;26.97;;;21.33;;
52586;SDS011;38480;52.724;6.436;2023-05-07T09:20:10;24.73;;;20.03;;
52586;SDS011;38480;52.724;6.436;2023-05-07T09:22:36;25.97;;;20.80;;
52586;SDS011;38480;52.724;6.436;2023-05-07T09:25:03;23.73;;;20.83;;
52586;SDS011;38480;52.724;6.436;2023-05-07T09:27:29;21.53;;;19.20;;
52586;SDS011;38480;52.724;6.436;2023-05-07T09:29:56;24.33;;;20.73;;
52586;SDS011;38480;52.724;6.436;2023-05-07T09:32:22;23.07;;;20.33;;
52586;SDS011;38480;52.724;6.436;2023-05-07T09:34:48;25.93;;;20.80;;
52586;SDS011;38480;52.724;6.436;2023-05-07T09:37:14;22.50;;;19.17;;
52586;SDS011;38480;52.724;6.436;2023-05-07T09:39:42;21.53;;;19.33;;
52586;SDS011;38480;52.724;6.436;2023-05-07T09:42:08;22.17;;;19.77;;
52586;SDS011;38480;52.724;6.436;2023-05-07T09:44:37;22.37;;;19.10;;
52586;SDS011;38480;52.724;6.436;2023-05-07T09:47:06;22.63;;;20.07;;
52586;SDS011;38480;52.724;6.436;2023-05-07T09:49:36;22.53;;;18.93;;
52586;SDS011;38480;52.724;6.436;2023-05-07T09:52:03;23.53;;;19.50;;
52586;SDS011;38480;52.724;6.436;2023-05-07T09:54:35;20.98;;;18.15;;
52586;SDS011;38480;52.724;6.436;2023-05-07T09:57:03;21.13;;;18.83;;
52586;SDS011;38480;52.724;6.436;2023-05-07T09:59:30;21.33;;;19.07;;
52586;SDS011;38480;52.724;6.436;2023-05-07T10:01:57;21.33;;;18.83;;
52586;SDS011;38480;52.724;6.436;2023-05-07T10:04:24;20.43;;;18.30;;
52586;SDS011;38480;52.724;6.436;2023-05-07T10:06:51;20.35;;;17.98;;
52586;SDS011;38480;52.724;6.436;2023-05-07T10:09:17;20.63;;;18.50;;
52586;SDS011;38480;52.724;6.436;2023-05-07T10:11:43;20.02;;;17.92;;
52586;SDS011;38480;52.724;6.436;2023-05-07T10:14:10;21.25;;;18.70;;
52586;SDS011;38480;52.724;6.436;2023-05-07T10:16:36;22.48;;;18.77;;
52586;SDS011;38480;52.724;6.436;2023-05-07T10:19:06;22.58;;;17.92;;
52586;SDS011;38480;52.724;6.436;2023-05-07T10:21:51;20.88;;;18.73;;
52586;SDS011;38480;52.724;6.436;2023-05-07T10:24:22;21.17;;;17.27;;
52586;SDS011;38480;52.724;6.436;2023-05-07T10:26:51;20.50;;;18.48;;
52586;SDS011;38480;52.724;6.436;2023-05-07T10:29:25;19.73;;;17.55;;
52586;SDS011;38480;52.724;6.436;2023-05-07T10:32:16;19.35;;;17.40;;
52586;SDS011;38480;52.724;6.436;2023-05-07T10:34:44;19.50;;;16.92;;
52586;SDS011;38480;52.724;6.436;2023-05-07T10:37:11;19.58;;;17.58;;
52586;SDS011;38480;52.724;6.436;2023-05-07T10:39:37;19.52;;;17.48;;
52586;SDS011;38480;52.724;6.436;2023-05-07T10:42:07;17.88;;;16.10;;
52586;SDS011;38480;52.724;6.436;2023-05-07T10:44:33;20.95;;;18.08;;
52586;SDS011;38480;52.724;6.436;2023-05-07T10:49:34;19.13;;;16.92;;
52586;SDS011;38480;52.724;6.436;2023-05-07T10:52:18;19.20;;;17.10;;
52586;SDS011;38480;52.724;6.436;2023-05-07T10:54:45;21.40;;;19.20;;
52586;SDS011;38480;52.724;6.436;2023-05-07T10:59:56;17.45;;;15.68;;
52586;SDS011;38480;52.724;6.436;2023-05-07T11:02:22;18.42;;;16.48;;
52586;SDS011;38480;52.724;6.436;2023-05-07T11:07:33;19.00;;;17.05;;
52586;SDS011;38480;52.724;6.436;2023-05-07T11:09:59;18.92;;;17.10;;
52586;SDS011;38480;52.724;6.436;2023-05-07T11:15:05;18.73;;;16.88;;
52586;SDS011;38480;52.724;6.436;2023-05-07T11:17:31;16.48;;;14.82;;
52586;SDS011;38480;52.724;6.436;2023-05-07T11:19:59;18.02;;;15.25;;
52586;SDS011;38480;52.724;6.436;2023-05-07T11:25:04;16.80;;;14.90;;
52586;SDS011;38480;52.724;6.436;2023-05-07T11:27:31;17.38;;;15.55;;
52586;SDS011;38480;52.724;6.436;2023-05-07T11:29:57;16.02;;;14.52;;
52586;SDS011;38480;52.724;6.436;2023-05-07T11:32:30;16.05;;;14.38;;
52586;SDS011;38480;52.724;6.436;2023-05-07T11:34:56;16.35;;;14.63;;
52586;SDS011;38480;52.724;6.436;2023-05-07T11:37:26;16.08;;;14.48;;
52586;SDS011;38480;52.724;6.436;2023-05-07T11:40:05;15.88;;;14.20;;
52586;SDS011;38480;52.724;6.436;2023-05-07T11:42:33;16.08;;;14.57;;
52586;SDS011;38480;52.724;6.436;2023-05-07T11:45:00;17.33;;;14.48;;
52586;SDS011;38480;52.724;6.436;2023-05-07T11:47:26;15.82;;;14.32;;
52586;SDS011;38480;52.724;6.436;2023-05-07T11:49:55;16.35;;;13.88;;
52586;SDS011;38480;52.724;6.436;2023-05-07T11:52:22;16.67;;;14.00;;
52586;SDS011;38480;52.724;6.436;2023-05-07T11:54:51;15.82;;;13.40;;
52586;SDS011;38480;52.724;6.436;2023-05-07T11:57:18;12.32;;;11.20;;
52586;SDS011;38480;52.724;6.436;2023-05-07T11:59:44;15.90;;;14.15;;
52586;SDS011;38480;52.724;6.436;2023-05-07T12:02:16;16.00;;;14.32;;
52586;SDS011;38480;52.724;6.436;2023-05-07T12:04:42;15.30;;;13.80;;
52586;SDS011;38480;52.724;6.436;2023-05-07T12:07:12;14.65;;;13.15;;
52586;SDS011;38480;52.724;6.436;2023-05-07T12:09:41;15.38;;;13.77;;
52586;SDS011;38480;52.724;6.436;2023-05-07T12:12:07;15.48;;;14.05;;
52586;SDS011;38480;52.724;6.436;2023-05-07T12:14:37;14.65;;;13.25;;
52586;SDS011;38480;52.724;6.436;2023-05-07T12:17:03;14.95;;;13.45;;
52586;SDS011;38480;52.724;6.436;2023-05-07T12:19:30;15.57;;;13.93;;
52586;SDS011;38480;52.724;6.436;2023-05-07T12:21:56;16.05;;;14.45;;
52586;SDS011;38480;52.724;6.436;2023-05-07T12:24:22;16.90;;;13.73;;
52586;SDS011;38480;52.724;6.436;2023-05-07T12:26:49;16.52;;;14.82;;
52586;SDS011;38480;52.724;6.436;2023-05-07T12:29:15;17.23;;;15.48;;
52586;SDS011;38480;52.724;6.436;2023-05-07T12:31:41;14.57;;;13.07;;
52586;SDS011;38480;52.724;6.436;2023-05-07T12:34:07;14.55;;;13.15;;
52586;SDS011;38480;52.724;6.436;2023-05-07T12:36:37;14.98;;;13.55;;
52586;SDS011;38480;52.724;6.436;2023-05-07T12:39:07;15.43;;;13.98;;
52586;SDS011;38480;52.724;6.436;2023-05-07T12:41:55;15.38;;;13.88;;
52586;SDS011;38480;52.724;6.436;2023-05-07T12:44:23;13.75;;;12.35;;
52586;SDS011;38480;52.724;6.436;2023-05-07T12:46:50;16.40;;;14.80;;
52586;SDS011;38480;52.724;6.436;2023-05-07T12:49:16;16.40;;;14.85;;
52586;SDS011;38480;52.724;6.436;2023-05-07T12:51:48;16.13;;;13.60;;
52586;SDS011;38480;52.724;6.436;2023-05-07T12:54:27;17.17;;;15.45;;
52586;SDS011;38480;52.724;6.436;2023-05-07T12:57:04;15.93;;;14.45;;
52586;SDS011;38480;52.724;6.436;2023-05-07T12:59:34;16.33;;;14.63;;
52586;SDS011;38480;52.724;6.436;2023-05-07T13:02:00;17.05;;;15.35;;
52586;SDS011;38480;52.724;6.436;2023-05-07T13:04:26;16.70;;;14.25;;
52586;SDS011;38480;52.724;6.436;2023-05-07T13:06:53;14.15;;;12.75;;
52586;SDS011;38480;52.724;6.436;2023-05-07T13:09:19;16.77;;;13.98;;
52586;SDS011;38480;52.724;6.436;2023-05-07T13:11:45;15.20;;;13.80;;
52586;SDS011;38480;52.724;6.436;2023-05-07T13:14:11;15.40;;;13.88;;
52586;SDS011;38480;52.724;6.436;2023-05-07T13:16:37;17.15;;;15.07;;
52586;SDS011;38480;52.724;6.436;2023-05-07T13:19:03;15.32;;;13.88;;
52586;SDS011;38480;52.724;6.436;2023-05-07T13:21:30;16.40;;;14.70;;
52586;SDS011;38480;52.724;6.436;2023-05-07T13:23:59;16.00;;;14.40;;
52586;SDS011;38480;52.724;6.436;2023-05-07T13:26:25;17.35;;;13.43;;
52586;SDS011;38480;52.724;6.436;2023-05-07T13:28:54;15.98;;;14.38;;
52586;SDS011;38480;52.724;6.436;2023-05-07T13:31:20;15.88;;;14.45;;
52586;SDS011;38480;52.724;6.436;2023-05-07T13:33:47;14.82;;;13.32;;
52586;SDS011;38480;52.724;6.436;2023-05-07T13:36:13;15.68;;;14.05;;
52586;SDS011;38480;52.724;6.436;2023-05-07T13:38:39;14.82;;;13.32;;
52586;SDS011;38480;52.724;6.436;2023-05-07T13:41:05;15.82;;;14.32;;
52586;SDS011;38480;52.724;6.436;2023-05-07T13:43:31;16.45;;;14.77;;
52586;SDS011;38480;52.724;6.436;2023-05-07T13:46:00;14.95;;;13.43;;
52586;SDS011;38480;52.724;6.436;2023-05-07T13:48:26;16.35;;;14.73;;
52586;SDS011;38480;52.724;6.436;2023-05-07T13:50:53;15.65;;;14.05;;
52586;SDS011;38480;52.724;6.436;2023-05-07T13:53:19;15.48;;;13.93;;
52586;SDS011;38480;52.724;6.436;2023-05-07T13:55:45;15.55;;;13.70;;
52586;SDS011;38480;52.724;6.436;2023-05-07T13:58:11;15.13;;;13.63;;
52586;SDS011;38480;52.724;6.436;2023-05-07T14:00:37;15.18;;;13.57;;
52586;SDS011;38480;52.724;6.436;2023-05-07T14:03:04;15.55;;;13.43;;
52586;SDS011;38480;52.724;6.436;2023-05-07T14:05:30;14.48;;;13.10;;
52586;SDS011;38480;52.724;6.436;2023-05-07T14:07:56;13.52;;;12.13;;
52586;SDS011;38480;52.724;6.436;2023-05-07T14:10:23;14.55;;;12.95;;
52586;SDS011;38480;52.724;6.436;2023-05-07T14:12:49;15.25;;;13.70;;
52586;SDS011;38480;52.724;6.436;2023-05-07T14:15:15;14.70;;;13.00;;
52586;SDS011;38480;52.724;6.436;2023-05-07T14:17:41;15.52;;;13.90;;
52586;SDS011;38480;52.724;6.436;2023-05-07T14:20:08;14.90;;;13.48;;
52586;SDS011;38480;52.724;6.436;2023-05-07T14:22:35;14.30;;;12.90;;
52586;SDS011;38480;52.724;6.436;2023-05-07T14:25:01;14.10;;;12.70;;
52586;SDS011;38480;52.724;6.436;2023-05-07T14:27:27;16.60;;;14.77;;
52586;SDS011;38480;52.724;6.436;2023-05-07T14:29:53;15.00;;;13.60;;
52586;SDS011;38480;52.724;6.436;2023-05-07T14:32:20;14.60;;;13.10;;